sensor_id;sensor_type;location;lat;lon;timestamp;P1;durP1;ratioP1;P2;durP2;ratioP2
7831;SDS011;3961;42.058;25.586;2022-09-30T11:20:57;6.30;;;4.40;;
7831;SDS011;3961;42.058;25.586;2022-09-30T11:37:42;4.07;;;3.00;;
7831;SDS011;3961;42.058;25.586;2022-09-30T11:40:29;8.05;;;3.13;;
7831;SDS011;3961;42.058;25.586;2022-09-30T11:43:04;5.73;;;2.80;;
7831;SDS011;3961;42.058;25.586;2022-09-30T11:51:38;4.13;;;2.00;;
7831;SDS011;3961;42.058;25.586;2022-09-30T11:56:54;3.07;;;2.57;;
7831;SDS011;3961;42.058;25.586;2022-09-30T11:59:25;3.97;;;2.30;;
7831;SDS011;3961;42.058;25.586;2022-09-30T12:01:56;6.07;;;2.60;;
7831;SDS011;3961;42.058;25.586;2022-09-30T12:04:26;14.67;;;3.10;;
7831;SDS011;3961;42.058;25.586;2022-09-30T12:09:35;2.90;;;2.27;;
7831;SDS011;3961;42.058;25.586;2022-09-30T12:12:15;3.58;;;2.80;;
7831;SDS011;3961;42.058;25.586;2022-09-30T12:14:47;8.23;;;2.65;;
7831;SDS011;3961;42.058;25.586;2022-09-30T12:17:36;3.78;;;2.50;;
7831;SDS011;3961;42.058;25.586;2022-09-30T12:23:34;2.83;;;1.83;;
7831;SDS011;3961;42.058;25.586;2022-09-30T12:25:59;3.33;;;2.50;;
7831;SDS011;3961;42.058;25.586;2022-09-30T12:28:36;3.67;;;2.13;;
7831;SDS011;3961;42.058;25.586;2022-09-30T12:47:56;4.45;;;2.35;;
7831;SDS011;3961;42.058;25.586;2022-09-30T12:50:28;2.50;;;2.13;;
7831;SDS011;3961;42.058;25.586;2022-09-30T12:53:01;7.82;;;2.35;;
7831;SDS011;3961;42.058;25.586;2022-09-30T12:55:46;5.80;;;2.10;;
7831;SDS011;3961;42.058;25.586;2022-09-30T12:58:18;2.60;;;2.20;;
7831;SDS011;3961;42.058;25.586;2022-09-30T13:01:05;11.77;;;5.75;;
7831;SDS011;3961;42.058;25.586;2022-09-30T13:03:44;13.10;;;5.03;;
7831;SDS011;3961;42.058;25.586;2022-09-30T13:11:41;8.63;;;2.67;;
7831;SDS011;3961;42.058;25.586;2022-09-30T13:19:50;6.97;;;2.00;;
7831;SDS011;3961;42.058;25.586;2022-09-30T13:22:40;2.47;;;2.10;;
7831;SDS011;3961;42.058;25.586;2022-09-30T13:25:10;9.67;;;3.63;;
7831;SDS011;3961;42.058;25.586;2022-09-30T13:27:45;2.67;;;2.40;;
7831;SDS011;3961;42.058;25.586;2022-09-30T13:33:04;5.23;;;2.53;;
7831;SDS011;3961;42.058;25.586;2022-09-30T13:35:50;3.17;;;2.13;;
7831;SDS011;3961;42.058;25.586;2022-09-30T13:38:20;3.83;;;2.43;;
7831;SDS011;3961;42.058;25.586;2022-09-30T13:41:03;5.40;;;2.20;;
7831;SDS011;3961;42.058;25.586;2022-09-30T13:43:39;3.27;;;2.47;;
7831;SDS011;3961;42.058;25.586;2022-09-30T13:46:19;5.17;;;2.57;;
7831;SDS011;3961;42.058;25.586;2022-09-30T13:48:53;2.80;;;2.20;;
7831;SDS011;3961;42.058;25.586;2022-09-30T13:51:23;4.53;;;2.13;;
7831;SDS011;3961;42.058;25.586;2022-09-30T13:53:53;4.53;;;2.43;;
7831;SDS011;3961;42.058;25.586;2022-09-30T13:56:32;3.23;;;2.53;;
7831;SDS011;3961;42.058;25.586;2022-09-30T14:22:21;9.20;;;4.80;;
7831;SDS011;3961;42.058;25.586;2022-09-30T14:24:51;4.30;;;2.80;;
7831;SDS011;3961;42.058;25.586;2022-09-30T14:27:22;3.00;;;2.57;;
7831;SDS011;3961;42.058;25.586;2022-09-30T14:35:21;8.40;;;5.73;;
7831;SDS011;3961;42.058;25.586;2022-09-30T14:37:49;3.10;;;2.40;;
7831;SDS011;3961;42.058;25.586;2022-09-30T14:40:19;3.67;;;2.30;;
7831;SDS011;3961;42.058;25.586;2022-09-30T14:42:49;4.27;;;2.00;;
7831;SDS011;3961;42.058;25.586;2022-09-30T14:45:20;5.40;;;2.40;;
7831;SDS011;3961;42.058;25.586;2022-09-30T14:47:51;3.00;;;2.50;;
7831;SDS011;3961;42.058;25.586;2022-09-30T14:50:21;2.30;;;2.10;;
7831;SDS011;3961;42.058;25.586;2022-09-30T14:52:50;9.37;;;2.73;;
7831;SDS011;3961;42.058;25.586;2022-09-30T14:55:28;6.47;;;3.17;;
7831;SDS011;3961;42.058;25.586;2022-09-30T15:00:57;3.60;;;2.30;;
7831;SDS011;3961;42.058;25.586;2022-09-30T15:03:28;12.37;;;2.30;;
7831;SDS011;3961;42.058;25.586;2022-09-30T15:05:56;5.70;;;2.53;;
7831;SDS011;3961;42.058;25.586;2022-09-30T15:08:22;5.77;;;2.73;;
7831;SDS011;3961;42.058;25.586;2022-09-30T15:10:50;5.33;;;3.03;;
7831;SDS011;3961;42.058;25.586;2022-09-30T15:13:17;8.63;;;4.87;;
7831;SDS011;3961;42.058;25.586;2022-09-30T15:15:45;8.77;;;3.57;;
7831;SDS011;3961;42.058;25.586;2022-09-30T15:20:57;4.57;;;2.33;;
7831;SDS011;3961;42.058;25.586;2022-09-30T15:23:29;7.17;;;2.80;;
7831;SDS011;3961;42.058;25.586;2022-09-30T15:25:57;5.40;;;2.63;;
7831;SDS011;3961;42.058;25.586;2022-09-30T15:28:23;4.07;;;2.63;;
7831;SDS011;3961;42.058;25.586;2022-09-30T15:30:50;7.20;;;2.53;;
7831;SDS011;3961;42.058;25.586;2022-09-30T15:33:19;5.17;;;2.80;;
7831;SDS011;3961;42.058;25.586;2022-09-30T15:35:59;13.87;;;3.03;;
7831;SDS011;3961;42.058;25.586;2022-09-30T15:38:26;7.60;;;2.57;;
7831;SDS011;3961;42.058;25.586;2022-09-30T15:41:00;3.90;;;2.73;;
7831;SDS011;3961;42.058;25.586;2022-09-30T15:43:30;8.33;;;3.10;;
7831;SDS011;3961;42.058;25.586;2022-09-30T15:46:14;5.53;;;2.93;;
7831;SDS011;3961;42.058;25.586;2022-09-30T15:49:03;6.40;;;3.73;;
7831;SDS011;3961;42.058;25.586;2022-09-30T15:51:33;7.30;;;4.10;;
7831;SDS011;3961;42.058;25.586;2022-09-30T15:54:46;7.10;;;4.10;;
7831;SDS011;3961;42.058;25.586;2022-09-30T15:56:49;5.33;;;3.67;;
7831;SDS011;3961;42.058;25.586;2022-09-30T15:59:15;5.60;;;4.10;;
7831;SDS011;3961;42.058;25.586;2022-09-30T16:01:41;7.27;;;4.60;;
7831;SDS011;3961;42.058;25.586;2022-09-30T16:09:05;8.23;;;4.43;;
7831;SDS011;3961;42.058;25.586;2022-09-30T16:11:42;12.97;;;4.97;;
7831;SDS011;3961;42.058;25.586;2022-09-30T16:14:19;13.80;;;4.33;;
7831;SDS011;3961;42.058;25.586;2022-09-30T16:16:50;11.47;;;4.63;;
7831;SDS011;3961;42.058;25.586;2022-09-30T16:19:19;12.10;;;5.30;;
7831;SDS011;3961;42.058;25.586;2022-09-30T16:21:51;15.50;;;5.02;;
7831;SDS011;3961;42.058;25.586;2022-09-30T16:26:50;16.77;;;6.43;;
7831;SDS011;3961;42.058;25.586;2022-09-30T16:29:17;19.20;;;6.53;;
7831;SDS011;3961;42.058;25.586;2022-09-30T16:31:43;13.47;;;5.40;;
7831;SDS011;3961;42.058;25.586;2022-09-30T16:34:28;16.20;;;6.60;;
7831;SDS011;3961;42.058;25.586;2022-09-30T16:37:03;15.17;;;6.87;;
7831;SDS011;3961;42.058;25.586;2022-09-30T16:39:35;22.33;;;7.20;;
7831;SDS011;3961;42.058;25.586;2022-09-30T16:42:00;11.50;;;6.20;;
7831;SDS011;3961;42.058;25.586;2022-09-30T16:44:28;12.07;;;5.77;;
7831;SDS011;3961;42.058;25.586;2022-09-30T16:47:00;22.20;;;6.60;;
7831;SDS011;3961;42.058;25.586;2022-09-30T16:49:26;15.40;;;5.87;;
7831;SDS011;3961;42.058;25.586;2022-09-30T16:51:52;15.03;;;6.40;;
7831;SDS011;3961;42.058;25.586;2022-09-30T16:54:18;13.43;;;5.13;;
7831;SDS011;3961;42.058;25.586;2022-09-30T16:56:43;13.07;;;6.90;;
7831;SDS011;3961;42.058;25.586;2022-09-30T16:59:11;14.70;;;7.10;;
7831;SDS011;3961;42.058;25.586;2022-09-30T17:01:38;16.57;;;6.70;;
7831;SDS011;3961;42.058;25.586;2022-09-30T17:04:04;16.87;;;6.13;;
7831;SDS011;3961;42.058;25.586;2022-09-30T17:06:30;18.97;;;6.80;;
7831;SDS011;3961;42.058;25.586;2022-09-30T17:08:57;13.03;;;6.57;;
7831;SDS011;3961;42.058;25.586;2022-09-30T17:11:25;20.80;;;7.53;;
7831;SDS011;3961;42.058;25.586;2022-09-30T17:13:57;19.77;;;8.77;;
7831;SDS011;3961;42.058;25.586;2022-09-30T17:16:27;17.73;;;6.47;;
7831;SDS011;3961;42.058;25.586;2022-09-30T17:18:52;16.17;;;5.83;;
7831;SDS011;3961;42.058;25.586;2022-09-30T17:21:19;9.80;;;4.03;;
7831;SDS011;3961;42.058;25.586;2022-09-30T17:23:46;11.90;;;5.53;;
7831;SDS011;3961;42.058;25.586;2022-09-30T17:26:12;20.57;;;6.83;;
7831;SDS011;3961;42.058;25.586;2022-09-30T17:28:37;19.57;;;6.03;;
7831;SDS011;3961;42.058;25.586;2022-09-30T17:31:03;11.93;;;6.53;;
7831;SDS011;3961;42.058;25.586;2022-09-30T17:33:29;11.47;;;5.60;;
7831;SDS011;3961;42.058;25.586;2022-09-30T17:35:57;11.43;;;6.37;;
7831;SDS011;3961;42.058;25.586;2022-09-30T17:38:24;20.70;;;7.40;;
7831;SDS011;3961;42.058;25.586;2022-09-30T17:40:49;18.90;;;7.87;;
7831;SDS011;3961;42.058;25.586;2022-09-30T17:43:33;17.63;;;6.60;;
7831;SDS011;3961;42.058;25.586;2022-09-30T17:45:59;15.17;;;6.23;;
7831;SDS011;3961;42.058;25.586;2022-09-30T17:48:25;15.23;;;5.50;;
7831;SDS011;3961;42.058;25.586;2022-09-30T17:50:50;11.10;;;4.27;;
7831;SDS011;3961;42.058;25.586;2022-09-30T17:53:18;10.17;;;3.93;;
7831;SDS011;3961;42.058;25.586;2022-09-30T17:55:45;13.27;;;3.73;;
7831;SDS011;3961;42.058;25.586;2022-09-30T17:58:13;7.93;;;4.00;;
7831;SDS011;3961;42.058;25.586;2022-09-30T18:00:40;9.70;;;4.07;;
7831;SDS011;3961;42.058;25.586;2022-09-30T18:03:06;8.57;;;3.90;;
7831;SDS011;3961;42.058;25.586;2022-09-30T18:05:34;10.10;;;4.37;;
7831;SDS011;3961;42.058;25.586;2022-09-30T18:08:00;9.67;;;3.90;;
7831;SDS011;3961;42.058;25.586;2022-09-30T18:10:26;10.90;;;3.57;;
7831;SDS011;3961;42.058;25.586;2022-09-30T18:12:52;9.53;;;4.00;;
7831;SDS011;3961;42.058;25.586;2022-09-30T18:15:19;7.87;;;5.10;;
7831;SDS011;3961;42.058;25.586;2022-09-30T18:17:48;19.47;;;5.07;;
7831;SDS011;3961;42.058;25.586;2022-09-30T18:20:14;11.90;;;4.90;;
7831;SDS011;3961;42.058;25.586;2022-09-30T18:22:39;12.70;;;5.23;;
7831;SDS011;3961;42.058;25.586;2022-09-30T18:25:05;14.77;;;6.17;;
7831;SDS011;3961;42.058;25.586;2022-09-30T18:27:55;11.27;;;5.07;;
7831;SDS011;3961;42.058;25.586;2022-09-30T18:30:22;6.57;;;3.93;;
7831;SDS011;3961;42.058;25.586;2022-09-30T18:32:49;6.47;;;3.90;;
7831;SDS011;3961;42.058;25.586;2022-09-30T18:35:16;7.33;;;4.23;;
7831;SDS011;3961;42.058;25.586;2022-09-30T18:37:45;13.53;;;4.20;;
7831;SDS011;3961;42.058;25.586;2022-09-30T18:40:14;9.80;;;3.97;;
7831;SDS011;3961;42.058;25.586;2022-09-30T18:42:44;10.47;;;4.17;;
7831;SDS011;3961;42.058;25.586;2022-09-30T18:45:10;8.37;;;4.40;;
7831;SDS011;3961;42.058;25.586;2022-09-30T18:47:39;9.70;;;4.60;;
7831;SDS011;3961;42.058;25.586;2022-09-30T18:50:07;14.10;;;6.30;;
7831;SDS011;3961;42.058;25.586;2022-09-30T18:52:34;13.73;;;6.33;;
7831;SDS011;3961;42.058;25.586;2022-09-30T18:55:00;11.33;;;6.57;;
7831;SDS011;3961;42.058;25.586;2022-09-30T18:57:26;12.53;;;5.83;;
7831;SDS011;3961;42.058;25.586;2022-09-30T18:59:51;10.50;;;5.07;;
7831;SDS011;3961;42.058;25.586;2022-09-30T19:02:17;9.83;;;5.00;;
7831;SDS011;3961;42.058;25.586;2022-09-30T19:04:43;11.00;;;5.60;;
7831;SDS011;3961;42.058;25.586;2022-09-30T19:07:08;7.57;;;4.50;;
7831;SDS011;3961;42.058;25.586;2022-09-30T19:09:34;9.90;;;4.77;;
7831;SDS011;3961;42.058;25.586;2022-09-30T19:11:59;13.03;;;4.80;;
7831;SDS011;3961;42.058;25.586;2022-09-30T19:14:25;12.80;;;5.17;;
7831;SDS011;3961;42.058;25.586;2022-09-30T19:16:54;13.27;;;5.23;;
7831;SDS011;3961;42.058;25.586;2022-09-30T19:19:20;15.77;;;6.83;;
7831;SDS011;3961;42.058;25.586;2022-09-30T19:21:47;10.47;;;4.60;;
7831;SDS011;3961;42.058;25.586;2022-09-30T19:24:13;9.90;;;4.67;;
7831;SDS011;3961;42.058;25.586;2022-09-30T19:26:38;12.63;;;4.70;;
7831;SDS011;3961;42.058;25.586;2022-09-30T19:29:04;13.87;;;4.73;;
7831;SDS011;3961;42.058;25.586;2022-09-30T19:31:31;13.90;;;5.20;;
7831;SDS011;3961;42.058;25.586;2022-09-30T19:33:59;12.63;;;5.80;;
7831;SDS011;3961;42.058;25.586;2022-09-30T19:36:26;7.27;;;4.83;;
7831;SDS011;3961;42.058;25.586;2022-09-30T19:38:52;9.17;;;4.97;;
7831;SDS011;3961;42.058;25.586;2022-09-30T19:41:23;11.03;;;5.70;;
7831;SDS011;3961;42.058;25.586;2022-09-30T19:43:49;10.97;;;5.13;;
7831;SDS011;3961;42.058;25.586;2022-09-30T19:46:15;8.73;;;4.80;;
7831;SDS011;3961;42.058;25.586;2022-09-30T19:48:41;11.17;;;5.17;;
7831;SDS011;3961;42.058;25.586;2022-09-30T19:51:07;14.37;;;5.67;;
7831;SDS011;3961;42.058;25.586;2022-09-30T19:53:39;9.60;;;4.77;;
7831;SDS011;3961;42.058;25.586;2022-09-30T19:56:09;16.13;;;5.30;;
7831;SDS011;3961;42.058;25.586;2022-09-30T19:58:37;9.97;;;4.90;;
7831;SDS011;3961;42.058;25.586;2022-09-30T20:01:08;7.73;;;4.90;;
7831;SDS011;3961;42.058;25.586;2022-09-30T20:03:34;14.13;;;5.77;;
7831;SDS011;3961;42.058;25.586;2022-09-30T20:06:19;13.03;;;4.87;;
7831;SDS011;3961;42.058;25.586;2022-09-30T20:09:05;9.67;;;5.00;;
7831;SDS011;3961;42.058;25.586;2022-09-30T20:11:33;13.30;;;5.17;;
7831;SDS011;3961;42.058;25.586;2022-09-30T20:14:02;12.03;;;5.53;;
7831;SDS011;3961;42.058;25.586;2022-09-30T20:17:07;14.23;;;5.17;;
7831;SDS011;3961;42.058;25.586;2022-09-30T20:19:32;14.43;;;5.70;;
7831;SDS011;3961;42.058;25.586;2022-09-30T20:21:58;12.70;;;7.77;;
7831;SDS011;3961;42.058;25.586;2022-09-30T20:24:23;12.50;;;5.43;;
7831;SDS011;3961;42.058;25.586;2022-09-30T20:26:50;18.80;;;5.20;;
7831;SDS011;3961;42.058;25.586;2022-09-30T20:29:16;8.90;;;4.97;;
7831;SDS011;3961;42.058;25.586;2022-09-30T20:31:44;9.87;;;5.37;;
7831;SDS011;3961;42.058;25.586;2022-09-30T20:34:12;11.47;;;5.23;;
7831;SDS011;3961;42.058;25.586;2022-09-30T20:36:39;13.70;;;4.70;;
7831;SDS011;3961;42.058;25.586;2022-09-30T20:39:06;11.37;;;4.73;;
7831;SDS011;3961;42.058;25.586;2022-09-30T20:41:33;13.40;;;4.97;;
7831;SDS011;3961;42.058;25.586;2022-09-30T20:44:01;8.37;;;4.40;;
7831;SDS011;3961;42.058;25.586;2022-09-30T20:46:27;9.87;;;4.40;;
7831;SDS011;3961;42.058;25.586;2022-09-30T20:48:56;9.67;;;3.70;;
7831;SDS011;3961;42.058;25.586;2022-09-30T20:51:24;9.40;;;4.00;;
7831;SDS011;3961;42.058;25.586;2022-09-30T20:53:50;10.97;;;3.80;;
7831;SDS011;3961;42.058;25.586;2022-09-30T20:56:18;6.40;;;3.47;;
7831;SDS011;3961;42.058;25.586;2022-09-30T20:58:46;7.60;;;4.17;;
7831;SDS011;3961;42.058;25.586;2022-09-30T21:01:13;11.97;;;3.73;;
7831;SDS011;3961;42.058;25.586;2022-09-30T21:03:43;8.60;;;3.30;;
7831;SDS011;3961;42.058;25.586;2022-09-30T21:06:14;7.70;;;3.63;;
7831;SDS011;3961;42.058;25.586;2022-09-30T21:08:41;9.70;;;3.40;;
7831;SDS011;3961;42.058;25.586;2022-09-30T21:11:08;9.70;;;3.47;;
7831;SDS011;3961;42.058;25.586;2022-09-30T21:13:34;8.53;;;3.97;;
7831;SDS011;3961;42.058;25.586;2022-09-30T21:16:02;6.17;;;3.50;;
7831;SDS011;3961;42.058;25.586;2022-09-30T21:18:29;10.03;;;3.67;;
7831;SDS011;3961;42.058;25.586;2022-09-30T21:20:56;7.70;;;3.50;;
7831;SDS011;3961;42.058;25.586;2022-09-30T21:23:23;5.57;;;3.40;;
7831;SDS011;3961;42.058;25.586;2022-09-30T21:25:59;10.17;;;4.00;;
7831;SDS011;3961;42.058;25.586;2022-09-30T21:28:27;7.77;;;3.50;;
7831;SDS011;3961;42.058;25.586;2022-09-30T21:30:53;6.63;;;3.47;;
7831;SDS011;3961;42.058;25.586;2022-09-30T21:33:20;7.03;;;3.77;;
7831;SDS011;3961;42.058;25.586;2022-09-30T21:35:47;9.77;;;3.37;;
7831;SDS011;3961;42.058;25.586;2022-09-30T21:38:13;5.60;;;3.00;;
7831;SDS011;3961;42.058;25.586;2022-09-30T21:40:42;6.50;;;3.90;;
7831;SDS011;3961;42.058;25.586;2022-09-30T21:43:08;6.63;;;3.83;;
7831;SDS011;3961;42.058;25.586;2022-09-30T21:45:33;6.27;;;3.53;;
7831;SDS011;3961;42.058;25.586;2022-09-30T21:48:00;8.53;;;3.40;;
7831;SDS011;3961;42.058;25.586;2022-09-30T21:50:26;6.03;;;4.13;;
7831;SDS011;3961;42.058;25.586;2022-09-30T21:52:52;6.90;;;3.83;;
7831;SDS011;3961;42.058;25.586;2022-09-30T21:55:18;7.30;;;3.47;;
7831;SDS011;3961;42.058;25.586;2022-09-30T21:57:43;14.00;;;5.53;;
7831;SDS011;3961;42.058;25.586;2022-09-30T22:00:11;9.57;;;3.90;;
7831;SDS011;3961;42.058;25.586;2022-09-30T22:02:37;6.93;;;3.97;;
7831;SDS011;3961;42.058;25.586;2022-09-30T22:05:02;5.97;;;3.90;;
7831;SDS011;3961;42.058;25.586;2022-09-30T22:07:30;8.47;;;4.20;;
7831;SDS011;3961;42.058;25.586;2022-09-30T22:09:57;7.97;;;4.20;;
7831;SDS011;3961;42.058;25.586;2022-09-30T22:12:22;5.30;;;3.80;;
7831;SDS011;3961;42.058;25.586;2022-09-30T22:14:48;11.17;;;5.20;;
7831;SDS011;3961;42.058;25.586;2022-09-30T22:17:13;7.87;;;4.50;;
7831;SDS011;3961;42.058;25.586;2022-09-30T22:19:40;9.73;;;4.57;;
7831;SDS011;3961;42.058;25.586;2022-09-30T22:22:06;12.10;;;4.53;;
7831;SDS011;3961;42.058;25.586;2022-09-30T22:24:34;7.13;;;4.30;;
7831;SDS011;3961;42.058;25.586;2022-09-30T22:27:01;6.17;;;4.40;;
7831;SDS011;3961;42.058;25.586;2022-09-30T22:29:31;9.77;;;4.83;;
7831;SDS011;3961;42.058;25.586;2022-09-30T22:31:57;9.87;;;4.77;;
7831;SDS011;3961;42.058;25.586;2022-09-30T22:34:23;7.37;;;4.60;;
7831;SDS011;3961;42.058;25.586;2022-09-30T22:37:07;8.80;;;4.13;;
7831;SDS011;3961;42.058;25.586;2022-09-30T22:39:52;6.13;;;4.13;;
7831;SDS011;3961;42.058;25.586;2022-09-30T22:42:18;5.77;;;4.23;;
7831;SDS011;3961;42.058;25.586;2022-09-30T22:44:44;7.27;;;4.30;;
7831;SDS011;3961;42.058;25.586;2022-09-30T22:47:11;12.10;;;4.83;;
7831;SDS011;3961;42.058;25.586;2022-09-30T22:49:38;8.03;;;4.23;;
7831;SDS011;3961;42.058;25.586;2022-09-30T22:52:04;10.60;;;4.27;;
7831;SDS011;3961;42.058;25.586;2022-09-30T22:54:30;8.67;;;5.00;;
7831;SDS011;3961;42.058;25.586;2022-09-30T22:56:59;6.97;;;4.90;;
7831;SDS011;3961;42.058;25.586;2022-09-30T22:59:25;8.03;;;4.80;;
7831;SDS011;3961;42.058;25.586;2022-09-30T23:01:52;8.40;;;4.27;;
7831;SDS011;3961;42.058;25.586;2022-09-30T23:04:18;6.93;;;4.30;;
7831;SDS011;3961;42.058;25.586;2022-09-30T23:06:48;7.50;;;4.17;;
7831;SDS011;3961;42.058;25.586;2022-09-30T23:09:15;6.33;;;4.50;;
7831;SDS011;3961;42.058;25.586;2022-09-30T23:11:43;9.03;;;4.80;;
7831;SDS011;3961;42.058;25.586;2022-09-30T23:14:10;6.93;;;4.23;;
7831;SDS011;3961;42.058;25.586;2022-09-30T23:16:36;6.73;;;4.10;;
7831;SDS011;3961;42.058;25.586;2022-09-30T23:19:02;11.27;;;5.10;;
7831;SDS011;3961;42.058;25.586;2022-09-30T23:21:27;8.93;;;4.30;;
7831;SDS011;3961;42.058;25.586;2022-09-30T23:23:53;10.10;;;4.00;;
7831;SDS011;3961;42.058;25.586;2022-09-30T23:26:19;7.70;;;3.80;;
7831;SDS011;3961;42.058;25.586;2022-09-30T23:28:56;9.60;;;4.33;;
7831;SDS011;3961;42.058;25.586;2022-09-30T23:31:22;6.07;;;3.93;;
7831;SDS011;3961;42.058;25.586;2022-09-30T23:33:49;5.10;;;4.20;;
7831;SDS011;3961;42.058;25.586;2022-09-30T23:36:17;6.37;;;3.90;;
7831;SDS011;3961;42.058;25.586;2022-09-30T23:38:44;8.40;;;4.20;;
7831;SDS011;3961;42.058;25.586;2022-09-30T23:41:11;7.33;;;4.37;;
7831;SDS011;3961;42.058;25.586;2022-09-30T23:43:37;5.53;;;3.90;;
7831;SDS011;3961;42.058;25.586;2022-09-30T23:46:04;6.43;;;4.00;;
7831;SDS011;3961;42.058;25.586;2022-09-30T23:48:34;7.20;;;4.03;;
7831;SDS011;3961;42.058;25.586;2022-09-30T23:51:01;6.53;;;3.97;;
7831;SDS011;3961;42.058;25.586;2022-09-30T23:53:28;10.30;;;4.07;;
7831;SDS011;3961;42.058;25.586;2022-09-30T23:55:55;7.50;;;4.27;;
7831;SDS011;3961;42.058;25.586;2022-09-30T23:58:25;6.83;;;4.07;;
